sensor_id;sensor_type;location;lat;lon;timestamp;P1;durP1;ratioP1;P2;durP2;ratioP2
12076;SDS011;12420;42.676;23.262;2024-03-17T00:01:35;24.40;;;19.10;;
12076;SDS011;12420;42.676;23.262;2024-03-17T00:04:02;23.80;;;18.20;;
12076;SDS011;12420;42.676;23.262;2024-03-17T00:06:29;23.83;;;17.83;;
12076;SDS011;12420;42.676;23.262;2024-03-17T00:08:56;23.87;;;18.00;;
12076;SDS011;12420;42.676;23.262;2024-03-17T00:11:22;24.07;;;18.30;;
12076;SDS011;12420;42.676;23.262;2024-03-17T00:13:49;22.77;;;18.03;;
12076;SDS011;12420;42.676;23.262;2024-03-17T00:16:15;22.10;;;17.73;;
12076;SDS011;12420;42.676;23.262;2024-03-17T00:18:43;26.00;;;17.57;;
12076;SDS011;12420;42.676;23.262;2024-03-17T00:21:10;24.07;;;18.23;;
12076;SDS011;12420;42.676;23.262;2024-03-17T00:23:40;26.03;;;18.50;;
12076;SDS011;12420;42.676;23.262;2024-03-17T00:26:05;24.73;;;17.83;;
12076;SDS011;12420;42.676;23.262;2024-03-17T00:28:33;24.70;;;18.70;;
12076;SDS011;12420;42.676;23.262;2024-03-17T00:30:58;23.10;;;18.10;;
12076;SDS011;12420;42.676;23.262;2024-03-17T00:33:25;21.57;;;17.23;;
12076;SDS011;12420;42.676;23.262;2024-03-17T00:35:51;22.60;;;18.33;;
12076;SDS011;12420;42.676;23.262;2024-03-17T00:38:18;24.03;;;17.83;;
12076;SDS011;12420;42.676;23.262;2024-03-17T00:40:45;22.87;;;17.90;;
12076;SDS011;12420;42.676;23.262;2024-03-17T00:43:12;23.07;;;17.87;;
12076;SDS011;12420;42.676;23.262;2024-03-17T00:45:38;24.10;;;17.93;;
12076;SDS011;12420;42.676;23.262;2024-03-17T00:48:05;21.93;;;17.80;;
12076;SDS011;12420;42.676;23.262;2024-03-17T00:50:31;23.40;;;18.67;;
12076;SDS011;12420;42.676;23.262;2024-03-17T00:52:59;23.60;;;18.43;;
12076;SDS011;12420;42.676;23.262;2024-03-17T00:55:26;25.70;;;18.70;;
12076;SDS011;12420;42.676;23.262;2024-03-17T00:57:55;23.30;;;18.87;;
12076;SDS011;12420;42.676;23.262;2024-03-17T01:00:20;24.50;;;19.00;;
12076;SDS011;12420;42.676;23.262;2024-03-17T01:02:48;22.80;;;18.33;;
12076;SDS011;12420;42.676;23.262;2024-03-17T01:05:13;23.83;;;19.10;;
12076;SDS011;12420;42.676;23.262;2024-03-17T01:07:40;28.73;;;18.27;;
12076;SDS011;12420;42.676;23.262;2024-03-17T01:10:06;26.50;;;19.00;;
12076;SDS011;12420;42.676;23.262;2024-03-17T01:12:34;23.77;;;18.60;;
12076;SDS011;12420;42.676;23.262;2024-03-17T01:15:02;25.17;;;19.37;;
12076;SDS011;12420;42.676;23.262;2024-03-17T01:17:30;25.07;;;19.20;;
12076;SDS011;12420;42.676;23.262;2024-03-17T01:19:55;27.47;;;20.63;;
12076;SDS011;12420;42.676;23.262;2024-03-17T01:22:22;25.60;;;19.67;;
12076;SDS011;12420;42.676;23.262;2024-03-17T01:24:48;26.40;;;20.03;;
12076;SDS011;12420;42.676;23.262;2024-03-17T01:27:15;25.80;;;19.63;;
12076;SDS011;12420;42.676;23.262;2024-03-17T01:29:41;26.40;;;19.43;;
12076;SDS011;12420;42.676;23.262;2024-03-17T01:32:09;24.20;;;18.93;;
12076;SDS011;12420;42.676;23.262;2024-03-17T01:34:37;24.07;;;18.47;;
12076;SDS011;12420;42.676;23.262;2024-03-17T01:37:03;25.80;;;19.23;;
12076;SDS011;12420;42.676;23.262;2024-03-17T01:39:29;27.37;;;19.50;;
12076;SDS011;12420;42.676;23.262;2024-03-17T01:41:57;25.57;;;18.93;;
12076;SDS011;12420;42.676;23.262;2024-03-17T01:44:23;22.53;;;18.70;;
12076;SDS011;12420;42.676;23.262;2024-03-17T01:46:52;23.77;;;19.00;;
12076;SDS011;12420;42.676;23.262;2024-03-17T01:49:20;26.13;;;19.90;;
12076;SDS011;12420;42.676;23.262;2024-03-17T01:51:47;25.40;;;18.97;;
12076;SDS011;12420;42.676;23.262;2024-03-17T01:54:13;24.87;;;19.43;;
12076;SDS011;12420;42.676;23.262;2024-03-17T01:56:42;32.40;;;22.87;;
12076;SDS011;12420;42.676;23.262;2024-03-17T01:59:08;27.97;;;20.80;;
12076;SDS011;12420;42.676;23.262;2024-03-17T02:01:36;27.17;;;20.30;;
12076;SDS011;12420;42.676;23.262;2024-03-17T02:04:02;27.57;;;19.60;;
12076;SDS011;12420;42.676;23.262;2024-03-17T02:06:31;25.87;;;19.77;;
12076;SDS011;12420;42.676;23.262;2024-03-17T02:08:56;29.10;;;19.87;;
12076;SDS011;12420;42.676;23.262;2024-03-17T02:11:24;27.70;;;20.20;;
12076;SDS011;12420;42.676;23.262;2024-03-17T02:13:51;27.83;;;18.97;;
12076;SDS011;12420;42.676;23.262;2024-03-17T02:16:19;25.17;;;19.30;;
12076;SDS011;12420;42.676;23.262;2024-03-17T02:18:45;26.07;;;20.07;;
12076;SDS011;12420;42.676;23.262;2024-03-17T02:21:12;26.77;;;18.73;;
12076;SDS011;12420;42.676;23.262;2024-03-17T02:23:39;25.13;;;18.87;;
12076;SDS011;12420;42.676;23.262;2024-03-17T02:26:06;30.83;;;20.27;;
12076;SDS011;12420;42.676;23.262;2024-03-17T02:28:37;27.97;;;19.90;;
12076;SDS011;12420;42.676;23.262;2024-03-17T02:31:06;26.57;;;20.03;;
12076;SDS011;12420;42.676;23.262;2024-03-17T02:33:33;24.90;;;18.67;;
12076;SDS011;12420;42.676;23.262;2024-03-17T02:36:00;30.03;;;20.00;;
12076;SDS011;12420;42.676;23.262;2024-03-17T02:38:26;25.57;;;19.20;;
12076;SDS011;12420;42.676;23.262;2024-03-17T02:41:08;28.97;;;21.13;;
12076;SDS011;12420;42.676;23.262;2024-03-17T02:43:35;26.70;;;20.27;;
12076;SDS011;12420;42.676;23.262;2024-03-17T02:46:02;28.03;;;20.77;;
12076;SDS011;12420;42.676;23.262;2024-03-17T02:48:29;27.70;;;20.77;;
12076;SDS011;12420;42.676;23.262;2024-03-17T02:50:56;27.90;;;20.67;;
12076;SDS011;12420;42.676;23.262;2024-03-17T02:53:23;26.40;;;20.37;;
12076;SDS011;12420;42.676;23.262;2024-03-17T02:55:50;29.83;;;21.27;;
12076;SDS011;12420;42.676;23.262;2024-03-17T02:58:18;28.77;;;20.60;;
12076;SDS011;12420;42.676;23.262;2024-03-17T03:00:45;28.73;;;20.60;;
12076;SDS011;12420;42.676;23.262;2024-03-17T03:03:12;29.23;;;21.27;;
12076;SDS011;12420;42.676;23.262;2024-03-17T03:05:39;29.37;;;21.33;;
12076;SDS011;12420;42.676;23.262;2024-03-17T03:08:06;26.47;;;20.53;;
12076;SDS011;12420;42.676;23.262;2024-03-17T03:10:33;29.93;;;21.23;;
12076;SDS011;12420;42.676;23.262;2024-03-17T03:13:00;28.13;;;20.70;;
12076;SDS011;12420;42.676;23.262;2024-03-17T03:15:30;29.43;;;20.63;;
12076;SDS011;12420;42.676;23.262;2024-03-17T03:17:57;30.53;;;21.47;;
12076;SDS011;12420;42.676;23.262;2024-03-17T03:20:24;29.50;;;21.97;;
12076;SDS011;12420;42.676;23.262;2024-03-17T03:22:53;29.70;;;22.10;;
12076;SDS011;12420;42.676;23.262;2024-03-17T03:25:20;30.27;;;21.43;;
12076;SDS011;12420;42.676;23.262;2024-03-17T03:27:46;28.03;;;21.53;;
12076;SDS011;12420;42.676;23.262;2024-03-17T03:30:13;28.30;;;20.60;;
12076;SDS011;12420;42.676;23.262;2024-03-17T03:32:42;30.17;;;20.57;;
12076;SDS011;12420;42.676;23.262;2024-03-17T03:35:09;30.73;;;22.23;;
12076;SDS011;12420;42.676;23.262;2024-03-17T03:37:36;30.17;;;21.10;;
12076;SDS011;12420;42.676;23.262;2024-03-17T03:40:03;30.97;;;21.77;;
12076;SDS011;12420;42.676;23.262;2024-03-17T03:42:41;30.00;;;20.23;;
12076;SDS011;12420;42.676;23.262;2024-03-17T03:45:08;27.47;;;19.90;;
12076;SDS011;12420;42.676;23.262;2024-03-17T03:47:37;30.07;;;19.77;;
12076;SDS011;12420;42.676;23.262;2024-03-17T03:50:07;28.43;;;19.77;;
12076;SDS011;12420;42.676;23.262;2024-03-17T03:52:35;26.13;;;19.17;;
12076;SDS011;12420;42.676;23.262;2024-03-17T03:55:02;29.97;;;19.43;;
12076;SDS011;12420;42.676;23.262;2024-03-17T03:57:32;27.57;;;19.37;;
12076;SDS011;12420;42.676;23.262;2024-03-17T03:59:59;28.27;;;19.23;;
12076;SDS011;12420;42.676;23.262;2024-03-17T04:02:26;27.60;;;19.03;;
12076;SDS011;12420;42.676;23.262;2024-03-17T04:04:56;27.13;;;18.63;;
12076;SDS011;12420;42.676;23.262;2024-03-17T04:07:24;25.27;;;17.80;;
12076;SDS011;12420;42.676;23.262;2024-03-17T04:09:52;27.17;;;18.63;;
12076;SDS011;12420;42.676;23.262;2024-03-17T04:12:19;27.57;;;18.77;;
12076;SDS011;12420;42.676;23.262;2024-03-17T04:14:46;24.93;;;18.13;;
12076;SDS011;12420;42.676;23.262;2024-03-17T04:17:17;24.57;;;17.43;;
12076;SDS011;12420;42.676;23.262;2024-03-17T04:19:46;26.83;;;17.90;;
12076;SDS011;12420;42.676;23.262;2024-03-17T04:22:13;23.43;;;17.63;;
12076;SDS011;12420;42.676;23.262;2024-03-17T04:24:41;25.73;;;18.17;;
12076;SDS011;12420;42.676;23.262;2024-03-17T04:27:08;25.07;;;18.37;;
12076;SDS011;12420;42.676;23.262;2024-03-17T04:29:35;25.20;;;18.13;;
12076;SDS011;12420;42.676;23.262;2024-03-17T04:32:01;26.33;;;17.70;;
12076;SDS011;12420;42.676;23.262;2024-03-17T04:34:30;24.93;;;18.73;;
12076;SDS011;12420;42.676;23.262;2024-03-17T04:36:57;25.10;;;17.43;;
12076;SDS011;12420;42.676;23.262;2024-03-17T04:39:24;24.23;;;17.97;;
12076;SDS011;12420;42.676;23.262;2024-03-17T04:41:52;24.90;;;17.67;;
12076;SDS011;12420;42.676;23.262;2024-03-17T04:44:19;21.50;;;16.37;;
12076;SDS011;12420;42.676;23.262;2024-03-17T04:46:45;23.40;;;17.40;;
12076;SDS011;12420;42.676;23.262;2024-03-17T04:49:12;24.60;;;16.83;;
12076;SDS011;12420;42.676;23.262;2024-03-17T04:51:39;24.07;;;16.70;;
12076;SDS011;12420;42.676;23.262;2024-03-17T04:54:06;25.30;;;18.03;;
12076;SDS011;12420;42.676;23.262;2024-03-17T04:56:33;24.53;;;17.33;;
12076;SDS011;12420;42.676;23.262;2024-03-17T04:59:01;25.60;;;17.80;;
12076;SDS011;12420;42.676;23.262;2024-03-17T05:01:28;23.20;;;16.70;;
12076;SDS011;12420;42.676;23.262;2024-03-17T05:03:56;24.73;;;17.40;;
12076;SDS011;12420;42.676;23.262;2024-03-17T05:06:23;25.67;;;17.80;;
12076;SDS011;12420;42.676;23.262;2024-03-17T05:08:50;25.30;;;17.07;;
12076;SDS011;12420;42.676;23.262;2024-03-17T05:11:16;24.40;;;17.43;;
12076;SDS011;12420;42.676;23.262;2024-03-17T05:13:44;24.77;;;17.83;;
12076;SDS011;12420;42.676;23.262;2024-03-17T05:16:12;24.13;;;17.00;;
12076;SDS011;12420;42.676;23.262;2024-03-17T05:18:38;23.97;;;16.40;;
12076;SDS011;12420;42.676;23.262;2024-03-17T05:21:06;25.67;;;15.70;;
12076;SDS011;12420;42.676;23.262;2024-03-17T05:23:34;23.53;;;15.73;;
12076;SDS011;12420;42.676;23.262;2024-03-17T05:26:02;24.47;;;15.80;;
12076;SDS011;12420;42.676;23.262;2024-03-17T05:28:30;22.47;;;15.10;;
12076;SDS011;12420;42.676;23.262;2024-03-17T05:30:57;20.77;;;15.67;;
12076;SDS011;12420;42.676;23.262;2024-03-17T05:33:25;19.10;;;15.03;;
12076;SDS011;12420;42.676;23.262;2024-03-17T05:35:52;19.00;;;14.83;;
12076;SDS011;12420;42.676;23.262;2024-03-17T05:38:20;20.93;;;14.47;;
12076;SDS011;12420;42.676;23.262;2024-03-17T05:40:52;19.57;;;15.07;;
12076;SDS011;12420;42.676;23.262;2024-03-17T05:43:21;20.53;;;15.27;;
12076;SDS011;12420;42.676;23.262;2024-03-17T05:45:49;21.07;;;15.33;;
12076;SDS011;12420;42.676;23.262;2024-03-17T05:48:16;21.97;;;15.80;;
12076;SDS011;12420;42.676;23.262;2024-03-17T05:50:44;20.63;;;15.57;;
12076;SDS011;12420;42.676;23.262;2024-03-17T05:53:11;21.37;;;15.97;;
12076;SDS011;12420;42.676;23.262;2024-03-17T05:55:38;21.53;;;16.20;;
12076;SDS011;12420;42.676;23.262;2024-03-17T05:58:06;22.77;;;16.33;;
12076;SDS011;12420;42.676;23.262;2024-03-17T06:00:34;22.67;;;16.20;;
12076;SDS011;12420;42.676;23.262;2024-03-17T06:03:01;20.73;;;17.23;;
12076;SDS011;12420;42.676;23.262;2024-03-17T06:05:31;28.67;;;20.87;;
12076;SDS011;12420;42.676;23.262;2024-03-17T06:07:59;27.47;;;19.43;;
12076;SDS011;12420;42.676;23.262;2024-03-17T06:10:27;22.57;;;18.20;;
12076;SDS011;12420;42.676;23.262;2024-03-17T06:12:54;25.87;;;18.77;;
12076;SDS011;12420;42.676;23.262;2024-03-17T06:15:21;22.17;;;16.87;;
12076;SDS011;12420;42.676;23.262;2024-03-17T06:17:48;25.17;;;17.17;;
12076;SDS011;12420;42.676;23.262;2024-03-17T06:20:17;22.13;;;16.67;;
12076;SDS011;12420;42.676;23.262;2024-03-17T06:22:43;22.57;;;16.40;;
12076;SDS011;12420;42.676;23.262;2024-03-17T06:25:12;19.70;;;14.30;;
12076;SDS011;12420;42.676;23.262;2024-03-17T06:27:39;21.47;;;16.40;;
12076;SDS011;12420;42.676;23.262;2024-03-17T06:30:06;23.53;;;16.17;;
12076;SDS011;12420;42.676;23.262;2024-03-17T06:32:39;21.37;;;15.90;;
12076;SDS011;12420;42.676;23.262;2024-03-17T06:35:06;19.40;;;15.13;;
12076;SDS011;12420;42.676;23.262;2024-03-17T06:37:33;23.07;;;17.27;;
12076;SDS011;12420;42.676;23.262;2024-03-17T06:40:00;19.03;;;14.93;;
12076;SDS011;12420;42.676;23.262;2024-03-17T06:42:29;20.83;;;15.83;;
12076;SDS011;12420;42.676;23.262;2024-03-17T06:44:56;17.70;;;14.27;;
12076;SDS011;12420;42.676;23.262;2024-03-17T06:47:23;26.87;;;18.83;;
12076;SDS011;12420;42.676;23.262;2024-03-17T06:49:50;23.83;;;18.07;;
12076;SDS011;12420;42.676;23.262;2024-03-17T06:52:17;24.27;;;18.97;;
12076;SDS011;12420;42.676;23.262;2024-03-17T06:54:44;23.50;;;18.30;;
12076;SDS011;12420;42.676;23.262;2024-03-17T06:57:14;22.33;;;17.90;;
12076;SDS011;12420;42.676;23.262;2024-03-17T06:59:43;20.30;;;15.90;;
12076;SDS011;12420;42.676;23.262;2024-03-17T07:02:11;17.67;;;14.90;;
12076;SDS011;12420;42.676;23.262;2024-03-17T07:04:42;25.77;;;19.60;;
12076;SDS011;12420;42.676;23.262;2024-03-17T07:07:09;22.87;;;15.50;;
12076;SDS011;12420;42.676;23.262;2024-03-17T07:09:37;19.50;;;15.00;;
12076;SDS011;12420;42.676;23.262;2024-03-17T07:12:04;24.90;;;19.47;;
12076;SDS011;12420;42.676;23.262;2024-03-17T07:14:30;34.47;;;22.10;;
12076;SDS011;12420;42.676;23.262;2024-03-17T07:16:59;31.57;;;22.93;;
12076;SDS011;12420;42.676;23.262;2024-03-17T07:19:25;31.40;;;22.23;;
12076;SDS011;12420;42.676;23.262;2024-03-17T07:21:53;26.20;;;20.77;;
12076;SDS011;12420;42.676;23.262;2024-03-17T07:24:20;29.73;;;19.07;;
12076;SDS011;12420;42.676;23.262;2024-03-17T07:26:47;24.80;;;18.90;;
12076;SDS011;12420;42.676;23.262;2024-03-17T07:29:14;22.70;;;17.13;;
12076;SDS011;12420;42.676;23.262;2024-03-17T07:31:41;19.37;;;15.23;;
12076;SDS011;12420;42.676;23.262;2024-03-17T07:34:10;30.20;;;20.73;;
12076;SDS011;12420;42.676;23.262;2024-03-17T07:36:37;27.07;;;20.90;;
12076;SDS011;12420;42.676;23.262;2024-03-17T07:39:04;26.23;;;18.97;;
12076;SDS011;12420;42.676;23.262;2024-03-17T07:41:32;22.57;;;17.13;;
12076;SDS011;12420;42.676;23.262;2024-03-17T07:43:59;22.33;;;17.77;;
12076;SDS011;12420;42.676;23.262;2024-03-17T07:46:25;29.33;;;20.93;;
12076;SDS011;12420;42.676;23.262;2024-03-17T07:48:52;28.10;;;22.20;;
12076;SDS011;12420;42.676;23.262;2024-03-17T07:51:20;26.57;;;20.13;;
12076;SDS011;12420;42.676;23.262;2024-03-17T07:53:48;28.80;;;19.40;;
12076;SDS011;12420;42.676;23.262;2024-03-17T07:56:16;27.67;;;21.37;;
12076;SDS011;12420;42.676;23.262;2024-03-17T07:58:44;32.07;;;22.10;;
12076;SDS011;12420;42.676;23.262;2024-03-17T08:01:13;31.23;;;21.50;;
12076;SDS011;12420;42.676;23.262;2024-03-17T08:03:42;28.30;;;21.10;;
12076;SDS011;12420;42.676;23.262;2024-03-17T08:06:11;25.37;;;19.87;;
12076;SDS011;12420;42.676;23.262;2024-03-17T08:08:39;22.33;;;16.80;;
12076;SDS011;12420;42.676;23.262;2024-03-17T08:11:06;27.17;;;20.20;;
12076;SDS011;12420;42.676;23.262;2024-03-17T08:13:33;28.37;;;18.27;;
12076;SDS011;12420;42.676;23.262;2024-03-17T08:16:00;23.93;;;17.57;;
12076;SDS011;12420;42.676;23.262;2024-03-17T08:18:28;25.00;;;17.57;;
12076;SDS011;12420;42.676;23.262;2024-03-17T08:20:55;24.50;;;18.60;;
12076;SDS011;12420;42.676;23.262;2024-03-17T08:23:22;23.43;;;18.23;;
12076;SDS011;12420;42.676;23.262;2024-03-17T08:25:54;29.37;;;21.83;;
12076;SDS011;12420;42.676;23.262;2024-03-17T08:28:21;21.47;;;16.10;;
12076;SDS011;12420;42.676;23.262;2024-03-17T08:30:51;19.60;;;15.47;;
12076;SDS011;12420;42.676;23.262;2024-03-17T08:33:19;20.43;;;15.70;;
12076;SDS011;12420;42.676;23.262;2024-03-17T08:35:54;20.60;;;14.53;;
12076;SDS011;12420;42.676;23.262;2024-03-17T08:38:21;17.47;;;13.20;;
12076;SDS011;12420;42.676;23.262;2024-03-17T08:40:49;21.80;;;14.17;;
12076;SDS011;12420;42.676;23.262;2024-03-17T08:43:17;17.20;;;14.57;;
12076;SDS011;12420;42.676;23.262;2024-03-17T08:45:44;19.63;;;14.37;;
12076;SDS011;12420;42.676;23.262;2024-03-17T08:48:11;16.50;;;13.80;;
12076;SDS011;12420;42.676;23.262;2024-03-17T08:50:38;17.83;;;14.27;;
12076;SDS011;12420;42.676;23.262;2024-03-17T08:53:05;20.93;;;14.10;;
12076;SDS011;12420;42.676;23.262;2024-03-17T08:55:32;18.87;;;13.93;;
12076;SDS011;12420;42.676;23.262;2024-03-17T08:57:59;18.17;;;13.87;;
12076;SDS011;12420;42.676;23.262;2024-03-17T09:00:27;17.30;;;13.57;;
12076;SDS011;12420;42.676;23.262;2024-03-17T09:02:55;17.60;;;13.70;;
12076;SDS011;12420;42.676;23.262;2024-03-17T09:05:22;19.43;;;13.80;;
12076;SDS011;12420;42.676;23.262;2024-03-17T09:07:48;14.27;;;12.53;;
12076;SDS011;12420;42.676;23.262;2024-03-17T09:10:15;17.23;;;12.07;;
12076;SDS011;12420;42.676;23.262;2024-03-17T09:12:42;18.13;;;12.73;;
12076;SDS011;12420;42.676;23.262;2024-03-17T09:15:09;16.60;;;12.53;;
12076;SDS011;12420;42.676;23.262;2024-03-17T09:17:38;18.20;;;12.60;;
12076;SDS011;12420;42.676;23.262;2024-03-17T09:20:05;11.70;;;10.50;;
12076;SDS011;12420;42.676;23.262;2024-03-17T09:22:37;12.83;;;10.17;;
12076;SDS011;12420;42.676;23.262;2024-03-17T09:25:05;9.93;;;8.90;;
12076;SDS011;12420;42.676;23.262;2024-03-17T09:27:33;10.07;;;8.70;;
12076;SDS011;12420;42.676;23.262;2024-03-17T09:30:01;11.87;;;9.30;;
12076;SDS011;12420;42.676;23.262;2024-03-17T09:32:31;12.77;;;9.30;;
12076;SDS011;12420;42.676;23.262;2024-03-17T09:34:59;10.97;;;8.60;;
12076;SDS011;12420;42.676;23.262;2024-03-17T09:37:26;11.53;;;8.27;;
12076;SDS011;12420;42.676;23.262;2024-03-17T09:39:53;10.13;;;8.10;;
12076;SDS011;12420;42.676;23.262;2024-03-17T09:42:22;7.80;;;6.93;;
12076;SDS011;12420;42.676;23.262;2024-03-17T09:44:49;7.70;;;6.67;;
12076;SDS011;12420;42.676;23.262;2024-03-17T09:47:19;6.53;;;5.83;;
12076;SDS011;12420;42.676;23.262;2024-03-17T09:49:46;7.03;;;6.33;;
12076;SDS011;12420;42.676;23.262;2024-03-17T09:52:18;7.60;;;6.50;;
12076;SDS011;12420;42.676;23.262;2024-03-17T09:54:48;7.70;;;6.03;;
12076;SDS011;12420;42.676;23.262;2024-03-17T09:57:20;6.07;;;5.27;;
12076;SDS011;12420;42.676;23.262;2024-03-17T09:59:51;6.10;;;4.77;;
12076;SDS011;12420;42.676;23.262;2024-03-17T10:02:20;7.60;;;6.07;;
12076;SDS011;12420;42.676;23.262;2024-03-17T10:04:47;8.47;;;6.67;;
12076;SDS011;12420;42.676;23.262;2024-03-17T10:07:16;7.30;;;5.57;;
12076;SDS011;12420;42.676;23.262;2024-03-17T10:09:42;14.40;;;8.57;;
12076;SDS011;12420;42.676;23.262;2024-03-17T10:12:29;6.53;;;5.93;;
12076;SDS011;12420;42.676;23.262;2024-03-17T10:14:59;6.83;;;5.70;;
12076;SDS011;12420;42.676;23.262;2024-03-17T10:17:30;6.37;;;5.70;;
12076;SDS011;12420;42.676;23.262;2024-03-17T10:20:15;5.67;;;5.17;;
12076;SDS011;12420;42.676;23.262;2024-03-17T10:23:01;11.03;;;8.10;;
12076;SDS011;12420;42.676;23.262;2024-03-17T10:25:30;7.60;;;6.47;;
12076;SDS011;12420;42.676;23.262;2024-03-17T10:27:58;6.97;;;5.53;;
12076;SDS011;12420;42.676;23.262;2024-03-17T10:30:26;8.37;;;5.63;;
12076;SDS011;12420;42.676;23.262;2024-03-17T10:32:56;5.70;;;4.90;;
12076;SDS011;12420;42.676;23.262;2024-03-17T10:35:27;6.03;;;5.33;;
12076;SDS011;12420;42.676;23.262;2024-03-17T10:37:56;8.53;;;6.30;;
12076;SDS011;12420;42.676;23.262;2024-03-17T10:40:25;7.60;;;5.33;;
12076;SDS011;12420;42.676;23.262;2024-03-17T10:42:54;4.90;;;4.50;;
12076;SDS011;12420;42.676;23.262;2024-03-17T10:45:22;6.80;;;5.50;;
12076;SDS011;12420;42.676;23.262;2024-03-17T10:47:50;6.77;;;5.90;;
12076;SDS011;12420;42.676;23.262;2024-03-17T10:50:18;7.07;;;6.30;;
12076;SDS011;12420;42.676;23.262;2024-03-17T10:52:46;9.37;;;6.27;;
12076;SDS011;12420;42.676;23.262;2024-03-17T10:58:03;7.63;;;5.57;;
12076;SDS011;12420;42.676;23.262;2024-03-17T11:00:33;6.90;;;6.20;;
12076;SDS011;12420;42.676;23.262;2024-03-17T11:03:02;6.07;;;5.57;;
12076;SDS011;12420;42.676;23.262;2024-03-17T11:05:30;6.37;;;5.13;;
12076;SDS011;12420;42.676;23.262;2024-03-17T11:07:59;5.40;;;4.90;;
12076;SDS011;12420;42.676;23.262;2024-03-17T11:10:27;6.70;;;4.50;;
12076;SDS011;12420;42.676;23.262;2024-03-17T11:12:56;5.63;;;4.50;;
12076;SDS011;12420;42.676;23.262;2024-03-17T11:15:39;4.70;;;4.40;;
12076;SDS011;12420;42.676;23.262;2024-03-17T11:21:18;4.83;;;3.97;;
12076;SDS011;12420;42.676;23.262;2024-03-17T11:23:59;4.20;;;3.90;;
12076;SDS011;12420;42.676;23.262;2024-03-17T11:26:31;4.70;;;4.30;;
12076;SDS011;12420;42.676;23.262;2024-03-17T11:29:01;5.60;;;4.60;;
12076;SDS011;12420;42.676;23.262;2024-03-17T11:31:36;4.57;;;4.17;;
12076;SDS011;12420;42.676;23.262;2024-03-17T11:34:06;4.40;;;4.00;;
12076;SDS011;12420;42.676;23.262;2024-03-17T11:36:51;3.93;;;3.63;;
12076;SDS011;12420;42.676;23.262;2024-03-17T11:39:19;3.80;;;3.50;;
12076;SDS011;12420;42.676;23.262;2024-03-17T11:41:46;4.13;;;3.80;;
12076;SDS011;12420;42.676;23.262;2024-03-17T11:44:22;4.93;;;3.77;;
12076;SDS011;12420;42.676;23.262;2024-03-17T11:46:52;3.93;;;3.63;;
12076;SDS011;12420;42.676;23.262;2024-03-17T11:49:20;4.63;;;4.23;;
12076;SDS011;12420;42.676;23.262;2024-03-17T11:51:50;5.90;;;4.30;;
12076;SDS011;12420;42.676;23.262;2024-03-17T11:54:17;4.70;;;4.23;;
12076;SDS011;12420;42.676;23.262;2024-03-17T11:56:45;4.83;;;4.00;;
12076;SDS011;12420;42.676;23.262;2024-03-17T11:59:11;5.00;;;4.40;;
12076;SDS011;12420;42.676;23.262;2024-03-17T12:01:40;4.10;;;3.77;;
12076;SDS011;12420;42.676;23.262;2024-03-17T12:04:06;6.30;;;4.07;;
12076;SDS011;12420;42.676;23.262;2024-03-17T12:06:33;4.67;;;4.27;;
12076;SDS011;12420;42.676;23.262;2024-03-17T12:09:08;5.43;;;4.93;;
12076;SDS011;12420;42.676;23.262;2024-03-17T12:11:37;4.70;;;4.30;;
12076;SDS011;12420;42.676;23.262;2024-03-17T12:14:16;4.57;;;4.00;;
12076;SDS011;12420;42.676;23.262;2024-03-17T12:16:53;4.43;;;3.80;;
12076;SDS011;12420;42.676;23.262;2024-03-17T12:19:19;4.60;;;4.10;;
12076;SDS011;12420;42.676;23.262;2024-03-17T12:21:47;7.20;;;3.90;;
12076;SDS011;12420;42.676;23.262;2024-03-17T12:24:15;4.00;;;3.70;;
12076;SDS011;12420;42.676;23.262;2024-03-17T12:26:43;5.00;;;4.50;;
12076;SDS011;12420;42.676;23.262;2024-03-17T12:29:21;6.80;;;5.37;;
12076;SDS011;12420;42.676;23.262;2024-03-17T12:31:49;6.40;;;4.63;;
12076;SDS011;12420;42.676;23.262;2024-03-17T12:34:17;5.43;;;4.93;;
12076;SDS011;12420;42.676;23.262;2024-03-17T12:36:45;5.23;;;4.83;;
12076;SDS011;12420;42.676;23.262;2024-03-17T12:39:14;7.07;;;5.20;;
12076;SDS011;12420;42.676;23.262;2024-03-17T12:41:44;4.63;;;4.23;;
12076;SDS011;12420;42.676;23.262;2024-03-17T12:44:20;4.70;;;4.30;;
12076;SDS011;12420;42.676;23.262;2024-03-17T12:46:54;4.97;;;4.50;;
12076;SDS011;12420;42.676;23.262;2024-03-17T12:49:21;5.17;;;4.73;;
12076;SDS011;12420;42.676;23.262;2024-03-17T12:51:50;5.37;;;4.87;;
12076;SDS011;12420;42.676;23.262;2024-03-17T12:54:19;5.63;;;5.13;;
12076;SDS011;12420;42.676;23.262;2024-03-17T12:56:46;7.40;;;5.20;;
12076;SDS011;12420;42.676;23.262;2024-03-17T12:59:39;6.10;;;5.53;;
12076;SDS011;12420;42.676;23.262;2024-03-17T13:02:33;5.73;;;5.23;;
12076;SDS011;12420;42.676;23.262;2024-03-17T13:07:52;6.03;;;5.37;;
12076;SDS011;12420;42.676;23.262;2024-03-17T13:10:21;5.60;;;5.10;;
12076;SDS011;12420;42.676;23.262;2024-03-17T13:12:57;7.80;;;5.77;;
12076;SDS011;12420;42.676;23.262;2024-03-17T13:15:25;6.13;;;5.40;;
12076;SDS011;12420;42.676;23.262;2024-03-17T13:17:52;5.90;;;5.40;;
12076;SDS011;12420;42.676;23.262;2024-03-17T13:20:19;6.10;;;5.60;;
12076;SDS011;12420;42.676;23.262;2024-03-17T13:22:47;7.63;;;5.97;;
12076;SDS011;12420;42.676;23.262;2024-03-17T13:25:14;6.17;;;5.57;;
12076;SDS011;12420;42.676;23.262;2024-03-17T13:27:42;7.03;;;6.33;;
12076;SDS011;12420;42.676;23.262;2024-03-17T13:30:10;7.07;;;6.37;;
12076;SDS011;12420;42.676;23.262;2024-03-17T13:32:38;6.93;;;6.27;;
12076;SDS011;12420;42.676;23.262;2024-03-17T13:35:05;7.63;;;6.80;;
12076;SDS011;12420;42.676;23.262;2024-03-17T13:37:33;7.30;;;6.50;;
12076;SDS011;12420;42.676;23.262;2024-03-17T13:40:02;7.03;;;6.33;;
12076;SDS011;12420;42.676;23.262;2024-03-17T13:42:30;7.33;;;6.43;;
12076;SDS011;12420;42.676;23.262;2024-03-17T13:44:57;7.63;;;6.63;;
12076;SDS011;12420;42.676;23.262;2024-03-17T13:47:24;7.43;;;6.40;;
12076;SDS011;12420;42.676;23.262;2024-03-17T13:49:51;9.00;;;7.40;;
12076;SDS011;12420;42.676;23.262;2024-03-17T13:52:17;8.40;;;6.80;;
12076;SDS011;12420;42.676;23.262;2024-03-17T13:54:44;9.70;;;7.43;;
12076;SDS011;12420;42.676;23.262;2024-03-17T13:57:13;8.70;;;7.23;;
12076;SDS011;12420;42.676;23.262;2024-03-17T13:59:40;8.40;;;7.60;;
12076;SDS011;12420;42.676;23.262;2024-03-17T14:02:08;10.07;;;8.07;;
12076;SDS011;12420;42.676;23.262;2024-03-17T14:04:39;8.70;;;7.73;;
12076;SDS011;12420;42.676;23.262;2024-03-17T14:07:05;9.50;;;8.50;;
12076;SDS011;12420;42.676;23.262;2024-03-17T14:09:32;9.70;;;7.37;;
12076;SDS011;12420;42.676;23.262;2024-03-17T14:11:59;8.20;;;7.40;;
12076;SDS011;12420;42.676;23.262;2024-03-17T14:14:27;11.27;;;8.13;;
12076;SDS011;12420;42.676;23.262;2024-03-17T14:16:54;8.67;;;7.57;;
12076;SDS011;12420;42.676;23.262;2024-03-17T14:19:21;8.27;;;7.43;;
12076;SDS011;12420;42.676;23.262;2024-03-17T14:21:48;8.37;;;7.00;;
12076;SDS011;12420;42.676;23.262;2024-03-17T14:24:16;7.63;;;6.93;;
12076;SDS011;12420;42.676;23.262;2024-03-17T14:26:43;7.47;;;6.70;;
12076;SDS011;12420;42.676;23.262;2024-03-17T14:29:09;7.30;;;6.60;;
12076;SDS011;12420;42.676;23.262;2024-03-17T14:31:38;7.97;;;6.73;;